Time;durP1;ratioP1;P1;durP2;ratioP2;P2;SDS_P1;SDS_P2;PMS_P1;PMS_P2;Temp;Humidity;BMP_temperature;BMP_pressure;BME280_temperature;BME280_humidity;BME280_pressure;Samples;Min_cycle;Max_cycle;Signal;HPM_P1;HPM_P2
2023/03/23 00:09:43;;;;;;;2.87;1.93;;;9.80;99.90;;;;;;20912962;28;20025;-78
2023/03/23 00:19:46;;;;;;;6.43;2.10;;;9.60;99.90;;;;;;20916839;28;20037;-77
2023/03/23 00:29:48;;;;;;;3.33;1.88;;;10.00;99.90;;;;;;20911003;28;20483;-77
2023/03/23 00:39:51;;;;;;;2.22;1.20;;;9.80;99.90;;;;;;20927393;28;20068;-78
2023/03/23 00:49:52;;;;;;;2.33;1.30;;;9.60;99.90;;;;;;20928969;28;20048;-78
2023/03/23 00:59:54;;;;;;;4.28;1.33;;;9.60;99.90;;;;;;20927319;28;20032;-78
2023/03/23 01:09:57;;;;;;;4.93;1.43;;;9.90;99.90;;;;;;20924368;28;20500;-79
2023/03/23 01:19:58;;;;;;;7.22;1.92;;;10.00;99.90;;;;;;20925832;28;20039;-77
2023/03/23 01:29:59;;;;;;;3.27;1.57;;;10.00;99.90;;;;;;20925175;28;20400;-79
2023/03/23 01:40:00;;;;;;;4.00;1.70;;;9.70;99.90;;;;;;20924227;28;20404;-79
2023/03/23 01:50:01;;;;;;;5.00;1.20;;;9.70;99.90;;;;;;20922668;28;20040;-80
2023/03/23 02:00:14;;;;;;;5.45;2.17;;;9.60;99.90;;;;;;20927931;28;20079;-79
2023/03/23 02:10:15;;;;;;;5.93;2.10;;;9.70;99.90;;;;;;20927890;28;20099;-78
2023/03/23 02:20:23;;;;;;;3.05;1.80;;;9.40;99.90;;;;;;20925283;28;20029;-79
2023/03/23 02:30:41;;;;;;;3.35;1.73;;;9.40;99.90;;;;;;20925572;28;20036;-78
2023/03/23 02:40:46;;;;;;;9.18;2.80;;;9.40;99.90;;;;;;20908480;28;20037;-79
2023/03/23 02:50:51;;;;;;;6.38;3.13;;;9.90;99.90;;;;;;20922808;28;20096;-79
2023/03/23 03:00:56;;;;;;;5.47;2.60;;;10.00;99.90;;;;;;20927159;28;20499;-78
2023/03/23 03:11:13;;;;;;;7.22;2.83;;;10.00;99.90;;;;;;20922983;28;20044;-78
2023/03/23 03:21:16;;;;;;;6.78;3.40;;;10.00;99.90;;;;;;20938982;28;20028;-78
2023/03/23 03:31:29;;;;;;;8.40;3.40;;;10.00;99.90;;;;;;21003770;28;20028;-78
2023/03/23 03:41:30;;;;;;;6.13;3.53;;;9.90;99.90;;;;;;20977079;28;20033;-79
2023/03/23 03:51:32;;;;;;;5.63;2.45;;;9.80;99.90;;;;;;20923739;28;20055;-77
2023/03/23 04:01:34;;;;;;;5.10;2.47;;;9.80;99.90;;;;;;20921311;28;20514;-77
2023/03/23 04:11:35;;;;;;;7.85;2.97;;;9.80;99.90;;;;;;20930484;28;20033;-78
2023/03/23 04:21:58;;;;;;;4.32;2.42;;;9.90;99.90;;;;;;20936858;28;20095;-78
2023/03/23 04:32:01;;;;;;;4.70;2.28;;;9.90;99.90;;;;;;20933487;28;20399;-78
2023/03/23 04:42:13;;;;;;;6.40;2.00;;;9.90;99.90;;;;;;20914189;28;20040;-77
2023/03/23 04:52:25;;;;;;;3.88;1.95;;;9.80;99.90;;;;;;20917126;28;20075;-79
2023/03/23 05:02:30;;;;;;;5.43;2.30;;;9.90;99.90;;;;;;20922206;28;20079;-77
2023/03/23 05:12:33;;;;;;;4.05;2.67;;;9.90;99.90;;;;;;20918448;28;20107;-77
2023/03/23 05:22:39;;;;;;;9.57;4.20;;;9.90;99.90;;;;;;20904798;28;20063;-76
2023/03/23 05:32:42;;;;;;;7.47;2.50;;;9.90;99.90;;;;;;20893767;28;20056;-77
2023/03/23 05:42:58;;;;;;;4.18;1.92;;;9.80;99.90;;;;;;20908699;28;20033;-77
2023/03/23 05:53:17;;;;;;;2.95;1.80;;;9.80;99.90;;;;;;20872522;28;20037;-75
2023/03/23 06:03:18;;;;;;;3.28;2.10;;;9.90;99.90;;;;;;20907226;28;20033;-77
2023/03/23 06:13:29;;;;;;;;;;;10.00;99.90;;;;;;20903016;28;20512;-77
2023/03/23 06:23:39;;;;;;;10.55;4.15;;;10.10;99.90;;;;;;20926069;28;20386;-77
2023/03/23 06:33:40;;;;;;;6.43;3.40;;;10.30;99.90;;;;;;20906671;28;20037;-77
2023/03/23 06:44:01;;;;;;;5.93;3.20;;;10.60;99.90;;;;;;20870604;28;20041;-78
2023/03/23 06:54:06;;;;;;;9.85;3.95;;;11.00;99.90;;;;;;20897689;28;20500;-77
2023/03/23 07:04:13;;;;;;;6.30;3.33;;;11.20;99.90;;;;;;20853207;28;20041;-78
2023/03/23 07:14:23;;;;;;;5.57;3.53;;;11.20;99.90;;;;;;20874228;28;20035;-78
2023/03/23 07:24:26;;;;;;;7.65;3.53;;;11.20;99.90;;;;;;20848150;28;20030;-77
2023/03/23 07:34:45;;;;;;;6.55;3.70;;;11.40;99.90;;;;;;20826728;28;20532;-77
2023/03/23 07:44:54;;;;;;;12.30;4.60;;;11.30;99.90;;;;;;20827418;28;20033;-78
2023/03/23 07:54:55;;;;;;;7.85;4.20;;;11.60;99.90;;;;;;20808109;28;20572;-78
2023/03/23 08:05:08;;;;;;;8.07;3.63;;;11.80;99.90;;;;;;20877818;28;20049;-78
2023/03/23 08:15:45;;;;;;;7.78;3.65;;;12.30;99.90;;;;;;20802675;28;20048;-78
2023/03/23 08:26:12;;;;;;;12.27;3.70;;;13.10;99.90;;;;;;20887310;28;20588;-79
2023/03/23 08:36:39;;;;;;;6.65;3.40;;;13.50;99.90;;;;;;20917963;28;20037;-78
2023/03/23 08:47:02;;;;;;;6.85;3.08;;;13.60;99.90;;;;;;20816410;28;20046;-78
2023/03/23 08:57:30;;;;;;;10.25;3.15;;;13.80;99.90;;;;;;20847284;28;20385;-78
2023/03/23 09:07:47;;;;;;;8.20;4.65;;;14.70;99.90;;;;;;20849256;28;20029;-79
2023/03/23 09:17:51;;;;;;;9.68;4.03;;;15.00;99.90;;;;;;20928400;28;20025;-79
2023/03/23 09:27:57;;;;;;;6.60;3.15;;;15.50;99.90;;;;;;20919649;28;20040;-79
2023/03/23 09:38:00;;;;;;;10.43;3.47;;;15.70;99.90;;;;;;20931454;28;20033;-78
2023/03/23 09:48:42;;;;;;;5.40;3.58;;;15.40;99.90;;;;;;20927567;28;20163;-79
2023/03/23 09:59:06;;;;;;;6.07;2.67;;;15.40;99.90;;;;;;20905399;28;20118;-78
2023/03/23 10:09:16;;;;;;;4.50;2.40;;;15.60;99.90;;;;;;20905742;28;20476;-79
2023/03/23 10:19:36;;;;;;;2.90;1.67;;;15.70;99.90;;;;;;20924469;28;20131;-78
2023/03/23 10:29:43;;;;;;;2.35;1.15;;;15.90;99.90;;;;;;20924689;28;20024;-78
2023/03/23 10:39:58;;;;;;;4.47;2.08;;;15.80;99.90;;;;;;20924568;28;20037;-78
2023/03/23 10:50:04;;;;;;;3.08;1.85;;;15.80;99.90;;;;;;20921873;28;20037;-78
2023/03/23 11:00:19;;;;;;;3.92;1.90;;;15.90;99.90;;;;;;20918525;28;20086;-78
2023/03/23 11:10:25;;;;;;;8.50;2.35;;;15.80;99.90;;;;;;20917699;28;20040;-78
2023/03/23 11:20:29;;;;;;;3.45;1.65;;;16.10;99.90;;;;;;20919685;28;20545;-77
2023/03/23 11:30:31;;;;;;;2.42;1.30;;;16.40;99.90;;;;;;20924183;28;20087;-77
2023/03/23 11:40:33;;;;;;;5.93;1.67;;;16.50;99.90;;;;;;20918039;28;20037;-78
2023/03/23 11:50:44;;;;;;;3.40;1.48;;;16.80;99.90;;;;;;20917738;28;20036;-78
2023/03/23 12:00:56;;;;;;;6.60;1.80;;;16.90;99.90;;;;;;20917705;28;20029;-79
2023/03/23 12:11:10;;;;;;;;;;;17.20;99.90;;;;;;20923133;28;20106;-79
2023/03/23 12:21:15;;;;;;;2.72;1.48;;;17.00;99.90;;;;;;20920757;28;19916;-78
2023/03/23 12:31:41;;;;;;;6.93;1.35;;;17.00;99.90;;;;;;20929998;28;20040;-78
2023/03/23 12:42:03;;;;;;;4.85;1.52;;;17.00;99.90;;;;;;20902939;28;20048;-78
2023/03/23 12:52:04;;;;;;;7.20;1.63;;;16.80;99.90;;;;;;20852856;28;20492;-79
2023/03/23 13:02:17;;;;;;;1.60;1.17;;;16.70;99.90;;;;;;20894957;28;20029;-79
2023/03/23 13:12:19;;;;;;;5.07;1.65;;;16.90;99.90;;;;;;20887386;28;20032;-79
2023/03/23 13:22:52;;;;;;;10.88;2.42;;;16.90;99.90;;;;;;20933613;28;20033;-78
2023/03/23 13:33:03;;;;;;;2.92;1.73;;;16.70;99.90;;;;;;20929649;28;20040;-78
2023/03/23 13:43:05;;;;;;;3.60;1.60;;;16.90;99.90;;;;;;20919967;28;20041;-76
2023/03/23 13:53:13;;;;;;;;;;;17.40;99.90;;;;;;20930876;28;20493;-80
2023/03/23 14:03:36;;;;;;;2.83;1.35;;;17.50;99.90;;;;;;20932471;28;19917;-79
2023/03/23 14:13:45;;;;;;;4.97;1.23;;;17.30;99.90;;;;;;20878510;28;20037;-79
2023/03/23 14:23:46;;;;;;;1.27;1.13;;;16.90;99.90;;;;;;20849371;28;20101;-79
2023/03/23 14:33:49;;;;;;;3.03;1.50;;;16.70;99.90;;;;;;20849659;28;20488;-78
2023/03/23 14:43:50;;;;;;;2.47;0.90;;;16.40;99.90;;;;;;20900433;28;20090;-79
2023/03/23 14:53:53;;;;;;;2.57;1.23;;;16.30;99.90;;;;;;20932354;28;20112;-80
2023/03/23 15:04:21;;;;;;;5.53;2.17;;;16.40;99.90;;;;;;20928257;28;20044;-79
2023/03/23 15:14:27;;;;;;;2.90;1.17;;;16.70;99.90;;;;;;20924720;28;20036;-78
2023/03/23 15:24:37;;;;;;;4.05;1.77;;;17.00;99.90;;;;;;20916162;28;20033;-79
2023/03/23 15:34:39;;;;;;;6.55;4.10;;;16.80;99.90;;;;;;20913958;28;20040;-77
2023/03/23 15:44:40;;;;;;;4.28;2.58;;;16.50;99.90;;;;;;20898776;28;20103;-79
2023/03/23 15:54:48;;;;;;;5.90;2.70;;;16.40;99.90;;;;;;20867934;28;20033;-79
2023/03/23 16:04:50;;;;;;;4.80;1.90;;;16.20;99.90;;;;;;20876616;28;20557;-78
2023/03/23 16:14:52;;;;;;;3.03;1.40;;;16.10;99.90;;;;;;20863903;28;20029;-78
2023/03/23 16:24:53;;;;;;;2.67;1.48;;;15.80;99.90;;;;;;20847761;28;20056;-79
2023/03/23 16:34:54;;;;;;;7.77;1.30;;;15.80;99.90;;;;;;20828677;28;20029;-78
2023/03/23 16:44:54;;;;;;;2.97;1.50;;;15.50;99.90;;;;;;20846100;28;20124;-79
2023/03/23 16:54:55;;;;;;;4.37;1.80;;;15.10;99.90;;;;;;20924945;28;20029;-78
2023/03/23 17:04:56;;;;;;;2.30;1.60;;;14.80;99.90;;;;;;20928448;28;20033;-79
2023/03/23 17:14:57;;;;;;;3.47;1.50;;;14.60;99.90;;;;;;20909886;28;20052;-79
2023/03/23 17:24:58;;;;;;;5.50;1.67;;;14.40;99.90;;;;;;20932584;28;20040;-79
2023/03/23 17:35:00;;;;;;;3.00;2.00;;;14.20;99.90;;;;;;20928056;28;20064;-79
2023/03/23 17:45:02;;;;;;;7.63;2.25;;;14.10;99.90;;;;;;20926470;28;20028;-80
2023/03/23 17:55:03;;;;;;;4.05;1.77;;;14.10;99.90;;;;;;20925642;28;20219;-81
2023/03/23 18:05:05;;;;;;;;;;;13.60;99.90;;;;;;20924830;28;20049;-79
2023/03/23 18:15:06;;;;;;;11.70;6.95;;;13.60;99.90;;;;;;20927207;28;19912;-78
2023/03/23 18:25:07;;;;;;;9.30;7.65;;;13.40;99.90;;;;;;20930400;28;20040;-78
2023/03/23 18:35:09;;;;;;;9.67;4.23;;;13.20;99.90;;;;;;20929742;28;20488;-80
2023/03/23 18:45:11;;;;;;;14.60;6.18;;;13.10;99.90;;;;;;20932893;28;20029;-79
2023/03/23 18:55:12;;;;;;;45.83;19.95;;;13.10;99.90;;;;;;20909893;28;20107;-76
2023/03/23 19:05:13;;;;;;;36.10;18.50;;;12.80;99.90;;;;;;20846931;28;20037;-80
2023/03/23 19:15:15;;;;;;;6.63;4.37;;;12.60;99.90;;;;;;20878054;28;20048;-78
2023/03/23 19:25:16;;;;;;;7.93;1.83;;;12.80;99.90;;;;;;20884852;28;20037;-79
2023/03/23 19:35:17;;;;;;;7.63;3.33;;;12.90;99.90;;;;;;20874041;28;20644;-78
2023/03/23 19:45:17;;;;;;;3.87;1.60;;;12.90;99.90;;;;;;20865764;28;20095;-78
2023/03/23 19:55:18;;;;;;;4.87;2.33;;;12.70;99.90;;;;;;20841885;28;20378;-77
2023/03/23 20:05:19;;;;;;;4.43;1.80;;;12.60;99.90;;;;;;20843535;28;20025;-78
2023/03/23 20:15:20;;;;;;;5.27;1.90;;;12.70;99.90;;;;;;20918112;28;20029;-78
2023/03/23 20:25:21;;;;;;;4.23;1.93;;;12.80;99.90;;;;;;20929367;28;20037;-78
2023/03/23 20:35:22;;;;;;;4.43;2.30;;;12.40;99.90;;;;;;20916089;28;20079;-79
2023/03/23 20:45:23;;;;;;;5.40;1.73;;;12.60;99.90;;;;;;20914311;28;20089;-78
2023/03/23 20:55:24;;;;;;;9.07;3.17;;;12.60;99.90;;;;;;20922022;28;20096;-78
2023/03/23 21:05:25;;;;;;;5.78;2.03;;;12.70;99.90;;;;;;20931098;28;20106;-78
2023/03/23 21:15:26;;;;;;;5.80;1.90;;;12.50;99.90;;;;;;20916506;28;20038;-78
2023/03/23 21:25:27;;;;;;;5.97;2.20;;;12.50;99.90;;;;;;20846239;28;20488;-78
2023/03/23 21:35:28;;;;;;;;;;;12.60;99.90;;;;;;20847759;28;20037;-77
2023/03/23 21:45:29;;;;;;;5.93;2.00;;;12.60;99.90;;;;;;20910644;28;19915;-78
2023/03/23 21:55:30;;;;;;;6.10;2.40;;;12.60;99.90;;;;;;20924277;28;20107;-78
2023/03/23 22:05:31;;;;;;;7.78;2.25;;;12.60;99.90;;;;;;20928836;28;20057;-78
2023/03/23 22:15:32;;;;;;;4.07;2.00;;;12.40;99.90;;;;;;20917989;28;20443;-78
2023/03/23 22:25:35;;;;;;;4.33;2.10;;;12.40;99.90;;;;;;20926397;28;20021;-78
2023/03/23 22:35:36;;;;;;;5.82;2.80;;;12.30;99.90;;;;;;20923415;28;20024;-77
2023/03/23 22:45:36;;;;;;;5.47;3.27;;;12.00;99.90;;;;;;20923633;28;20035;-78
2023/03/23 22:55:44;;;;;;;4.67;3.00;;;11.90;99.90;;;;;;20921419;28;20029;-79
2023/03/23 23:05:49;;;;;;;5.13;1.95;;;11.80;99.90;;;;;;20912935;28;20037;-77
2023/03/23 23:15:53;;;;;;;7.65;2.30;;;11.70;99.90;;;;;;20923972;28;20103;-78
2023/03/23 23:25:54;;;;;;;5.88;2.25;;;11.80;99.90;;;;;;20926993;28;20032;-78
2023/03/23 23:35:55;;;;;;;9.90;2.43;;;11.80;99.90;;;;;;20912721;28;20056;-78
2023/03/23 23:45:56;;;;;;;6.43;2.20;;;11.90;99.90;;;;;;20892353;28;20804;-79
2023/03/23 23:56:02;;;;;;;3.58;1.98;;;11.60;99.90;;;;;;20913577;28;20503;-78
